Time;durP1;ratioP1;P1;durP2;ratioP2;P2;SDS_P1;SDS_P2;PMS_P1;PMS_P2;Temp;Humidity;BMP_temperature;BMP_pressure;BME280_temperature;BME280_humidity;BME280_pressure;Samples;Min_cycle;Max_cycle;Signal;HPM_P1;HPM_P2
2022/12/19 05:44:45;;;;;;;115.90;36.50;;;-4.20;99.90;;;;;;7629945;19;20377;-67
2022/12/19 05:47:19;;;;;;;132.15;42.67;;;-4.10;99.90;;;;;;7646684;19;20047;-68
2022/12/19 05:49:52;;;;;;;139.27;44.00;;;-4.10;99.90;;;;;;7630795;19;20026;-67
2022/12/19 05:52:25;;;;;;;133.83;41.17;;;-3.90;99.90;;;;;;7633821;19;20021;-67
2022/12/19 05:54:57;;;;;;;123.85;42.20;;;-3.80;99.90;;;;;;7629534;19;20912;-69
2022/12/19 05:57:30;;;;;;;131.93;41.55;;;-3.60;99.90;;;;;;7639438;19;20010;-68
2022/12/19 06:00:07;;;;;;;122.00;39.15;;;-3.60;99.90;;;;;;7646815;19;20011;-68
2022/12/19 06:02:43;;;;;;;117.28;40.38;;;-3.50;99.90;;;;;;7592357;19;21375;-68
2022/12/19 06:05:16;;;;;;;110.13;39.60;;;-3.40;99.90;;;;;;7616931;19;20018;-69
2022/12/19 06:07:49;;;;;;;111.28;38.47;;;-3.40;99.90;;;;;;7647981;19;20015;-69
2022/12/19 06:10:22;;;;;;;116.80;40.67;;;-3.30;99.90;;;;;;7644333;19;20018;-68
2022/12/19 06:12:54;;;;;;;116.40;37.92;;;-3.20;99.90;;;;;;7626579;19;20011;-68
2022/12/19 06:15:27;;;;;;;104.93;37.22;;;-3.20;99.90;;;;;;7618948;19;20018;-68
2022/12/19 06:18:00;;;;;;;114.90;38.58;;;-3.20;99.90;;;;;;7624431;19;20561;-68
2022/12/19 06:20:33;;;;;;;107.50;36.50;;;-3.20;99.90;;;;;;7637759;19;20014;-68
2022/12/19 06:23:05;;;;;;;99.28;35.63;;;-3.10;99.90;;;;;;7609917;19;20086;-68
2022/12/19 06:25:38;;;;;;;106.03;35.03;;;-3.10;99.90;;;;;;7606422;19;20018;-68
2022/12/19 06:28:12;;;;;;;100.97;36.20;;;-3.10;99.90;;;;;;7627533;19;20202;-68
2022/12/19 06:30:45;;;;;;;113.32;35.72;;;-3.10;99.90;;;;;;7615151;19;20068;-68
2022/12/19 06:33:17;;;;;;;100.53;35.58;;;-3.10;99.90;;;;;;7626388;19;20010;-68
2022/12/19 06:36:33;;;;;;;113.20;35.13;;;-3.00;99.90;;;;;;7614004;19;20023;-68
2022/12/19 06:39:06;;;;;;;103.82;36.33;;;-3.00;99.90;;;;;;7631817;19;20022;-66
2022/12/19 06:44:33;;;;;;;96.05;32.33;;;-3.00;99.90;;;;;;7643279;19;20544;-66
2022/12/19 06:47:06;;;;;;;102.53;34.08;;;-2.90;99.90;;;;;;7650418;19;20010;-68
2022/12/19 06:49:39;;;;;;;97.75;33.38;;;-2.80;99.90;;;;;;7650358;19;20010;-70
2022/12/19 06:52:12;;;;;;;97.25;34.45;;;-2.90;99.90;;;;;;7644379;19;20501;-68
2022/12/19 06:54:44;;;;;;;94.85;33.45;;;-2.80;99.90;;;;;;7625982;19;20360;-69
2022/12/19 06:57:17;;;;;;;89.95;31.08;;;-2.80;99.90;;;;;;7598684;19;20529;-67
2022/12/19 06:59:52;;;;;;;79.68;29.65;;;-2.80;99.90;;;;;;7608621;19;21771;-68
2022/12/19 07:02:27;;;;;;;;;;;-2.90;99.90;;;;;;7601642;19;20011;-67
2022/12/19 07:05:04;;;;;;;91.03;32.45;;;-2.80;99.90;;;;;;7612311;19;19922;-67
2022/12/19 07:07:37;;;;;;;85.43;31.63;;;-2.90;99.90;;;;;;7607805;19;20355;-67
2022/12/19 07:10:10;;;;;;;82.95;32.92;;;-2.80;99.90;;;;;;7609954;19;20683;-67
2022/12/19 07:12:43;;;;;;;81.22;27.92;;;-2.80;99.90;;;;;;7615055;19;20022;-67
2022/12/19 07:15:17;;;;;;;84.28;31.73;;;-2.70;99.90;;;;;;7616472;19;20917;-69
2022/12/19 07:17:50;;;;;;;82.55;29.55;;;-2.70;99.90;;;;;;7617097;19;20014;-69
2022/12/19 07:20:23;;;;;;;90.65;29.88;;;-2.60;99.90;;;;;;7611639;19;20119;-68
2022/12/19 07:22:56;;;;;;;90.45;31.00;;;-2.60;99.90;;;;;;7611948;19;20062;-67
2022/12/19 07:25:30;;;;;;;84.07;29.35;;;-2.60;99.90;;;;;;7614881;19;20025;-67
2022/12/19 07:28:02;;;;;;;79.90;29.17;;;-2.60;99.90;;;;;;7618423;19;20022;-67
2022/12/19 07:30:35;;;;;;;68.87;24.77;;;-2.50;99.90;;;;;;7605468;19;20028;-67
2022/12/19 07:33:08;;;;;;;82.65;29.38;;;-2.50;99.90;;;;;;7617906;19;20014;-67
2022/12/19 07:35:43;;;;;;;83.75;28.45;;;-2.40;99.90;;;;;;7615768;19;20011;-67
2022/12/19 07:38:16;;;;;;;82.53;27.40;;;-2.40;99.90;;;;;;7615510;19;20018;-67
2022/12/19 07:40:49;;;;;;;73.82;27.65;;;-2.40;99.90;;;;;;7609849;19;20018;-67
2022/12/19 07:43:22;;;;;;;75.60;27.87;;;-2.30;99.90;;;;;;7618592;19;20027;-70
2022/12/19 07:45:55;;;;;;;72.95;26.50;;;-2.20;99.90;;;;;;7611350;19;20018;-67
2022/12/19 07:48:30;;;;;;;80.57;28.80;;;-2.20;99.90;;;;;;7614997;19;20110;-67
2022/12/19 07:51:04;;;;;;;69.07;26.95;;;-2.10;99.90;;;;;;7616558;19;20038;-67
2022/12/19 07:53:37;;;;;;;74.82;27.48;;;-2.10;99.90;;;;;;7613348;19;20030;-67
2022/12/19 07:56:10;;;;;;;64.30;27.00;;;-2.00;99.90;;;;;;7618557;19;20521;-67
2022/12/19 07:58:44;;;;;;;73.22;26.65;;;-1.90;99.90;;;;;;7606734;19;20015;-67
2022/12/19 08:01:17;;;;;;;74.95;27.90;;;-1.80;99.90;;;;;;7605999;19;20015;-67
2022/12/19 08:03:51;;;;;;;72.57;26.45;;;-1.80;99.90;;;;;;7612622;19;20508;-67
2022/12/19 08:06:24;;;;;;;75.25;28.73;;;-1.70;99.90;;;;;;7616050;19;20853;-67
2022/12/19 08:08:57;;;;;;;79.25;27.27;;;-1.70;99.90;;;;;;7608290;19;20018;-67
2022/12/19 08:11:30;;;;;;;66.90;25.60;;;-1.60;99.90;;;;;;7614388;19;20050;-67
2022/12/19 08:14:03;;;;;;;74.90;26.48;;;-1.50;99.90;;;;;;7614007;19;20022;-67
2022/12/19 08:16:36;;;;;;;72.30;26.83;;;-1.40;99.90;;;;;;7610555;19;20011;-66
2022/12/19 08:19:29;;;;;;;66.70;26.05;;;-1.30;99.90;;;;;;7617216;19;20017;-68
2022/12/19 08:22:01;;;;;;;67.47;24.45;;;-1.20;99.90;;;;;;7610595;19;20021;-68
2022/12/19 08:24:35;;;;;;;62.55;23.55;;;-1.10;99.90;;;;;;7618810;19;20015;-69
2022/12/19 08:27:08;;;;;;;62.75;23.73;;;-1.00;99.90;;;;;;7612114;19;20061;-67
2022/12/19 08:29:41;;;;;;;53.00;22.58;;;-0.90;99.90;;;;;;7613179;19;20047;-67
2022/12/19 08:32:15;;;;;;;59.47;24.10;;;-0.80;99.90;;;;;;7608300;19;20026;-67
2022/12/19 08:34:53;;;;;;;60.80;23.33;;;-0.70;99.90;;;;;;7615054;19;20026;-68
2022/12/19 08:37:26;;;;;;;55.45;23.30;;;-0.70;99.90;;;;;;7612493;19;20018;-67
2022/12/19 08:39:59;;;;;;;48.65;21.08;;;-0.60;99.90;;;;;;7612361;19;20018;-67
2022/12/19 08:42:32;;;;;;;55.08;21.88;;;-0.40;99.90;;;;;;7612774;19;20011;-68
2022/12/19 08:45:06;;;;;;;48.30;21.02;;;-0.30;99.90;;;;;;7610911;19;20048;-67
2022/12/19 08:47:39;;;;;;;;;;;-0.20;99.90;;;;;;7607325;19;20620;-67
2022/12/19 08:50:12;;;;;;;48.40;18.88;;;-0.10;99.90;;;;;;7616890;19;20350;-67
2022/12/19 08:52:46;;;;;;;47.63;18.40;;;0.00;99.90;;;;;;7605014;19;20022;-70
2022/12/19 08:55:19;;;;;;;44.55;19.08;;;0.20;99.90;;;;;;7616046;19;20039;-68
2022/12/19 08:57:52;;;;;;;44.38;18.30;;;0.40;99.90;;;;;;7599008;19;20086;-67
2022/12/19 09:00:25;;;;;;;40.33;17.03;;;0.50;99.90;;;;;;7619677;19;20022;-67
2022/12/19 09:02:59;;;;;;;42.03;17.05;;;0.70;99.90;;;;;;7601038;19;20640;-68
2022/12/19 09:05:33;;;;;;;43.22;18.65;;;0.80;99.90;;;;;;7613797;19;20034;-68
2022/12/19 09:08:29;;;;;;;44.65;20.35;;;0.90;99.90;;;;;;7607500;19;20018;-67
2022/12/19 09:11:08;;;;;;;44.70;20.60;;;1.00;99.90;;;;;;7602749;19;20379;-67
2022/12/19 09:13:43;;;;;;;47.95;21.92;;;1.10;99.90;;;;;;7613588;19;20029;-66
2022/12/19 09:16:21;;;;;;;41.03;19.90;;;1.20;99.90;;;;;;7609562;19;20018;-68
2022/12/19 09:18:57;;;;;;;41.60;19.83;;;1.30;99.90;;;;;;7609134;19;20098;-69
2022/12/19 09:21:32;;;;;;;44.58;19.10;;;1.40;99.90;;;;;;7607544;19;20025;-67
2022/12/19 09:24:05;;;;;;;34.03;15.70;;;1.40;99.90;;;;;;7609491;19;20018;-69
2022/12/19 09:26:40;;;;;;;33.22;16.60;;;1.50;99.90;;;;;;7587904;19;20018;-66
2022/12/19 09:29:13;;;;;;;31.40;15.02;;;1.50;99.90;;;;;;7575239;19;20927;-68
2022/12/19 15:19:39;;;;;;;73.82;28.48;;;1.10;99.90;;;;;;7600027;19;21193;-68
2022/12/19 15:22:11;;;;;;;42.97;20.95;;;1.00;99.90;;;;;;7610999;19;20029;-68
2022/12/19 15:24:44;;;;;;;73.00;30.63;;;1.00;99.90;;;;;;7631990;19;20018;-68
2022/12/19 15:27:17;;;;;;;69.73;29.63;;;1.00;99.90;;;;;;7618152;19;20275;-70
2022/12/19 15:29:49;;;;;;;63.22;25.92;;;1.00;99.90;;;;;;7625133;19;20286;-73
2022/12/19 15:32:22;;;;;;;60.60;25.53;;;1.10;99.90;;;;;;7612714;19;20010;-70
2022/12/19 15:34:55;;;;;;;48.47;23.67;;;1.10;99.90;;;;;;7632198;19;20024;-71
2022/12/19 15:37:27;;;;;;;89.57;30.45;;;1.10;99.90;;;;;;7632328;19;20823;-69
2022/12/19 15:40:01;;;;;;;96.63;32.95;;;1.10;99.90;;;;;;7626008;19;20771;-68
2022/12/19 15:42:34;;;;;;;70.30;28.75;;;1.20;99.90;;;;;;7589500;19;20092;-70
2022/12/19 15:45:11;;;;;;;59.55;27.38;;;1.10;99.90;;;;;;7606118;19;20053;-70
2022/12/19 15:47:44;;;;;;;66.65;27.95;;;1.20;99.90;;;;;;7595986;19;20028;-70
2022/12/19 15:50:21;;;;;;;87.80;36.97;;;1.20;99.90;;;;;;7598093;19;20021;-70
2022/12/19 15:52:56;;;;;;;90.53;37.95;;;1.30;99.90;;;;;;7599707;19;20022;-68
2022/12/19 15:55:30;;;;;;;72.13;31.02;;;1.30;99.90;;;;;;7623966;19;20014;-69
2022/12/19 15:58:04;;;;;;;;;;;1.30;99.90;;;;;;7623896;19;20018;-68
2022/12/19 16:00:36;;;;;;;70.35;30.83;;;1.30;99.90;;;;;;7604544;19;19915;-69
2022/12/19 16:03:12;;;;;;;114.80;45.40;;;1.30;99.90;;;;;;7613830;19;20010;-69
2022/12/19 16:05:56;;;;;;;68.05;30.73;;;1.30;99.90;;;;;;7619811;19;20015;-69
2022/12/19 16:08:30;;;;;;;91.95;38.30;;;1.30;99.90;;;;;;7623309;19;20022;-69
2022/12/19 16:11:03;;;;;;;;;;;1.20;99.90;;;;;;7621335;19;20017;-68
2022/12/19 16:13:35;;;;;;;63.95;27.25;;;1.30;99.90;;;;;;7620226;19;19919;-69
2022/12/19 16:16:09;;;;;;;72.15;29.98;;;1.30;99.90;;;;;;7626229;19;20102;-72
2022/12/19 16:18:47;;;;;;;72.28;29.95;;;1.30;99.90;;;;;;7632704;19;20010;-72
2022/12/19 16:21:25;;;;;;;101.15;37.67;;;1.30;99.90;;;;;;7640703;19;20018;-71
2022/12/19 16:24:05;;;;;;;68.25;31.23;;;1.30;99.90;;;;;;7634375;19;20011;-72
2022/12/19 16:26:39;;;;;;;81.88;35.03;;;1.20;99.90;;;;;;7648029;19;20026;-71
2022/12/19 16:29:27;;;;;;;123.82;44.45;;;1.30;99.90;;;;;;7620529;19;20473;-72
2022/12/19 16:32:00;;;;;;;102.65;43.13;;;1.30;99.90;;;;;;7607016;19;20884;-72
2022/12/19 16:34:33;;;;;;;110.70;44.85;;;1.40;99.90;;;;;;7601675;19;20010;-71
2022/12/19 16:37:07;;;;;;;100.05;39.15;;;1.40;99.90;;;;;;7606983;19;20018;-71
2022/12/19 16:39:39;;;;;;;;;;;1.40;99.90;;;;;;7598287;19;20023;-72
2022/12/19 16:42:16;;;;;;;65.18;28.90;;;1.30;99.90;;;;;;7574081;19;19922;-71
2022/12/19 16:44:49;;;;;;;202.35;57.65;;;1.30;99.90;;;;;;7613871;19;20866;-69
2022/12/19 16:47:24;;;;;;;167.27;50.60;;;1.30;99.90;;;;;;7606584;19;20518;-69
2022/12/19 16:49:57;;;;;;;102.13;41.28;;;1.20;99.90;;;;;;7597294;19;20055;-68
2022/12/19 16:52:30;;;;;;;102.55;44.20;;;1.20;99.90;;;;;;7579537;19;20096;-69
2022/12/19 16:55:10;;;;;;;212.63;76.72;;;1.20;99.90;;;;;;7587135;19;20048;-68
2022/12/19 16:57:46;;;;;;;169.07;63.35;;;1.30;99.90;;;;;;7560345;19;20018;-69
2022/12/19 17:00:20;;;;;;;274.95;98.93;;;1.20;99.90;;;;;;7552627;19;20017;-66
2022/12/19 17:02:57;;;;;;;182.23;73.90;;;1.30;99.90;;;;;;7559705;19;20010;-69
2022/12/19 17:05:31;;;;;;;208.95;77.90;;;1.30;99.90;;;;;;7580781;19;20018;-68
2022/12/19 17:08:11;;;;;;;130.85;56.42;;;1.30;99.90;;;;;;7586756;19;20010;-67
2022/12/19 17:10:45;;;;;;;126.70;55.28;;;1.20;99.90;;;;;;7569075;19;20088;-68
2022/12/19 17:13:19;;;;;;;108.32;50.67;;;1.20;99.90;;;;;;7579994;19;20017;-67
2022/12/19 17:15:53;;;;;;;102.68;49.05;;;1.20;99.90;;;;;;7606770;19;20046;-68
2022/12/19 17:18:33;;;;;;;105.38;50.72;;;1.30;99.90;;;;;;7612772;19;20121;-68
2022/12/19 17:21:06;;;;;;;118.57;51.85;;;1.30;99.90;;;;;;7598877;19;20378;-73
2022/12/19 17:23:38;;;;;;;99.28;46.58;;;1.30;99.90;;;;;;7608913;19;20033;-68
2022/12/19 17:26:12;;;;;;;91.20;44.60;;;1.30;99.90;;;;;;7604089;19;20014;-68
2022/12/19 17:28:49;;;;;;;98.47;45.00;;;1.20;99.90;;;;;;7599090;19;20018;-68
2022/12/19 17:31:25;;;;;;;125.65;58.33;;;1.20;99.90;;;;;;7607133;19;20026;-69
2022/12/19 17:33:58;;;;;;;103.50;47.72;;;1.20;99.90;;;;;;7606212;19;21382;-68
2022/12/19 17:36:31;;;;;;;118.78;53.05;;;1.20;99.90;;;;;;7608901;19;20857;-69
2022/12/19 17:39:24;;;;;;;101.03;47.42;;;1.20;99.90;;;;;;7609462;19;20356;-68
2022/12/19 17:41:59;;;;;;;118.07;56.45;;;1.20;99.90;;;;;;7607130;19;20078;-69
2022/12/19 17:44:32;;;;;;;123.55;58.03;;;1.20;99.90;;;;;;7603223;19;20052;-68
2022/12/19 17:47:04;;;;;;;95.22;47.40;;;1.20;99.90;;;;;;7595812;19;20564;-68
2022/12/19 17:49:37;;;;;;;108.07;49.65;;;1.30;99.90;;;;;;7602616;19;20018;-68
2022/12/19 17:52:12;;;;;;;;;;;1.20;99.90;;;;;;7604240;19;20996;-68
2022/12/19 17:54:45;;;;;;;75.65;35.70;;;1.20;99.90;;;;;;7612580;19;19981;-68
2022/12/19 17:57:18;;;;;;;84.03;40.30;;;1.30;99.90;;;;;;7611661;19;20018;-68
2022/12/19 17:59:51;;;;;;;67.25;32.80;;;1.30;99.90;;;;;;7612827;19;20027;-68
2022/12/19 18:02:25;;;;;;;68.53;35.15;;;1.20;99.90;;;;;;7598068;19;20022;-69
2022/12/19 18:04:57;;;;;;;72.00;36.88;;;1.20;99.90;;;;;;7607117;19;20787;-67
2022/12/19 18:07:30;;;;;;;75.82;35.40;;;1.30;99.90;;;;;;7596047;19;20017;-66
2022/12/19 18:10:19;;;;;;;63.97;32.65;;;1.30;99.90;;;;;;7610804;19;20019;-66
2022/12/19 18:12:53;;;;;;;63.38;30.80;;;1.30;99.90;;;;;;7605432;19;20029;-68
2022/12/19 18:15:26;;;;;;;59.60;26.80;;;1.40;99.90;;;;;;7598639;19;20855;-67
2022/12/19 18:17:58;;;;;;;61.45;30.40;;;1.40;99.90;;;;;;7613618;19;21027;-67
2022/12/19 18:20:32;;;;;;;51.92;26.67;;;1.40;99.90;;;;;;7607648;19;20023;-66
2022/12/19 18:23:08;;;;;;;;;;;1.50;99.90;;;;;;7617931;19;20433;-67
2022/12/19 18:25:41;;;;;;;53.25;27.60;;;1.40;99.90;;;;;;7609787;19;20545;-67
2022/12/19 18:28:15;;;;;;;49.42;26.17;;;1.50;99.90;;;;;;7614491;19;20015;-69
2022/12/19 18:30:49;;;;;;;44.95;24.38;;;1.50;99.90;;;;;;7608262;19;21058;-67
2022/12/19 18:33:23;;;;;;;43.63;22.95;;;1.50;99.90;;;;;;7608057;19;20747;-67
2022/12/19 18:35:55;;;;;;;42.10;21.70;;;1.50;99.90;;;;;;7603638;19;20272;-66
2022/12/19 18:38:28;;;;;;;37.83;19.70;;;1.50;99.90;;;;;;7610010;19;20025;-67
2022/12/19 18:41:00;;;;;;;39.40;20.67;;;1.50;99.90;;;;;;7613372;19;20018;-67
2022/12/19 18:43:33;;;;;;;37.38;19.98;;;1.50;99.90;;;;;;7611890;19;20048;-67
2022/12/19 18:46:09;;;;;;;32.65;17.85;;;1.60;99.90;;;;;;7604104;19;20026;-67
2022/12/19 18:48:43;;;;;;;29.27;16.52;;;1.60;99.90;;;;;;7610106;19;20119;-65
2022/12/19 18:51:19;;;;;;;34.22;17.88;;;1.60;99.90;;;;;;7592851;19;20026;-67
2022/12/19 18:53:52;;;;;;;39.70;21.77;;;1.70;99.90;;;;;;7604775;19;20018;-67
2022/12/19 18:56:25;;;;;;;45.45;23.33;;;1.70;99.90;;;;;;7613887;19;20741;-67
2022/12/19 18:59:02;;;;;;;46.28;24.42;;;1.60;99.90;;;;;;7604297;19;20044;-67
2022/12/19 19:01:40;;;;;;;36.05;21.65;;;1.60;99.90;;;;;;7599464;19;20599;-67
2022/12/19 19:04:16;;;;;;;40.97;22.35;;;1.60;99.90;;;;;;7599919;19;20033;-66
2022/12/19 19:06:52;;;;;;;44.13;23.60;;;1.60;99.90;;;;;;7608700;19;20015;-67
2022/12/19 19:09:24;;;;;;;46.85;26.92;;;1.60;99.90;;;;;;7601436;19;20029;-70
2022/12/19 19:12:06;;;;;;;47.67;24.20;;;1.50;99.90;;;;;;7605904;19;20021;-68
2022/12/19 19:14:40;;;;;;;43.85;24.52;;;1.50;99.90;;;;;;7605116;19;20015;-66
2022/12/19 19:17:22;;;;;;;45.72;23.33;;;1.40;99.90;;;;;;7599336;19;20535;-68
2022/12/19 19:19:55;;;;;;;43.95;21.85;;;1.50;99.90;;;;;;7598649;19;20019;-67
2022/12/19 19:22:28;;;;;;;57.28;27.17;;;1.40;99.90;;;;;;7608290;19;20584;-67
2022/12/19 19:25:00;;;;;;;39.25;21.45;;;1.40;99.90;;;;;;7617104;19;20110;-69
2022/12/19 19:27:33;;;;;;;39.92;22.20;;;1.40;99.90;;;;;;7595406;19;20078;-67
2022/12/19 19:30:06;;;;;;;45.25;25.83;;;1.40;99.90;;;;;;7605386;19;20060;-67
2022/12/19 19:32:44;;;;;;;49.88;25.48;;;1.40;99.90;;;;;;7583902;19;20051;-69
2022/12/19 19:35:18;;;;;;;52.08;27.92;;;1.30;99.90;;;;;;7609643;19;20067;-69
2022/12/19 19:37:53;;;;;;;49.25;27.13;;;1.40;99.90;;;;;;7597399;19;21302;-67
2022/12/19 19:40:25;;;;;;;47.78;25.25;;;1.40;99.90;;;;;;7601541;19;20019;-67
2022/12/19 19:42:58;;;;;;;57.93;30.67;;;1.40;99.90;;;;;;7609394;19;20015;-67
2022/12/19 19:45:31;;;;;;;49.10;28.10;;;1.40;99.90;;;;;;7604296;19;20014;-66
2022/12/19 19:48:10;;;;;;;49.92;27.52;;;1.40;99.90;;;;;;7614022;19;20023;-69
2022/12/19 19:50:42;;;;;;;52.20;28.67;;;1.40;99.90;;;;;;7606593;19;20023;-67
2022/12/19 19:53:15;;;;;;;41.37;24.37;;;1.40;99.90;;;;;;7614693;19;20037;-68
2022/12/19 19:56:03;;;;;;;39.30;21.80;;;1.30;99.90;;;;;;7602356;19;20589;-67
2022/12/19 19:58:36;;;;;;;38.50;22.98;;;1.30;99.90;;;;;;7602243;19;21333;-68
2022/12/19 20:01:10;;;;;;;39.27;21.10;;;1.30;99.90;;;;;;7599205;19;20027;-69
2022/12/19 20:03:43;;;;;;;45.40;22.65;;;1.30;99.90;;;;;;7581274;19;20021;-66
2022/12/19 20:06:18;;;;;;;38.10;20.65;;;1.30;99.90;;;;;;7584736;19;20093;-67
2022/12/19 20:08:51;;;;;;;36.30;22.02;;;1.20;99.90;;;;;;7602585;19;20022;-69
2022/12/19 20:11:25;;;;;;;61.00;30.38;;;1.20;99.90;;;;;;7614844;19;20014;-68
2022/12/19 20:13:58;;;;;;;76.68;35.50;;;1.00;99.90;;;;;;7613894;19;20018;-67
2022/12/19 20:16:31;;;;;;;63.83;31.63;;;1.10;99.90;;;;;;7595678;19;20078;-67
2022/12/19 20:19:03;;;;;;;65.32;31.90;;;1.10;99.90;;;;;;7585852;19;20021;-67
2022/12/19 20:21:36;;;;;;;51.22;26.63;;;1.10;99.90;;;;;;7589649;19;20065;-67
2022/12/19 20:24:11;;;;;;;47.95;24.10;;;1.00;99.90;;;;;;7599258;19;20026;-67
2022/12/19 20:26:44;;;;;;;64.65;29.58;;;1.00;99.90;;;;;;7593834;19;20010;-67
2022/12/19 20:29:17;;;;;;;68.47;33.92;;;1.00;99.90;;;;;;7607657;19;20006;-66
2022/12/19 20:31:50;;;;;;;67.22;31.48;;;1.00;99.90;;;;;;7546150;19;20029;-67
2022/12/19 20:34:23;;;;;;;64.35;32.13;;;1.00;99.90;;;;;;7576100;19;20017;-67
2022/12/19 20:36:55;;;;;;;44.87;24.77;;;1.00;99.90;;;;;;7591199;19;20018;-67
2022/12/19 20:39:29;;;;;;;55.22;27.35;;;1.00;99.90;;;;;;7593659;19;20030;-66
